Date,TemperatureHighF,TemperatureAvgF,TemperatureLowF,DewpointHighF,DewpointAvgF,DewpointLowF,HumidityHigh,HumidityAvg,HumidityLow,PressureMaxIn,PressureMinIn,WindSpeedMaxMPH,WindSpeedAvgMPH,GustSpeedMaxMPH,PrecipitationSumIn
2014-1-1,50.5,40.1,31.5,33.3,28.9,25.3,84,65,47,30.91,29.75,0,0,5,0.00
2014-1-2,49.3,45.1,37.9,46.7,40.8,27.2,95,85,64,30.91,29.49,6,0,15,0.20
2014-1-3,39.6,29.9,22.5,30.9,13.1,8.1,71,50,38,30.91,29.75,9,2,22,0.00
2014-1-4,34.2,27.4,18.9,21.2,14.9,9.5,69,59,51,30.91,29.75,2,0,5,0.00
2014-1-5,43.0,38.1,33.4,43.0,35.3,21.2,100,90,60,30.91,29.64,0,0,5,0.28
2014-1-6,53.4,40.1,13.3,53.4,32.9,-6.1,100,78,40,30.91,29.46,7,2,15,0.16
2014-1-7,23.9,16.6,7.5,3.1,-1.8,-10.8,55,44,39,30.58,29.49,6,0,13,0.00
2014-1-8,40.0,26.4,12.9,19.7,10.8,3.1,70,52,36,30.60,29.72,2,0,6,0.00
2014-1-9,50.7,35.3,20.3,29.4,19.4,10.1,68,54,36,30.60,30.16,2,0,7,0.00
2014-1-10,44.4,41.8,39.0,43.0,38.4,29.2,100,89,55,30.60,29.84,1,0,7,1.18
2014-1-11,63.9,51.5,42.3,63.9,51.5,42.3,100,100,100,30.60,29.69,7,0,15,1.14
2014-1-12,59.9,46.2,34.3,50.9,37.1,28.8,100,74,42,30.60,30.04,3,0,10,0.00
2014-1-13,59.2,45.6,32.9,43.7,34.4,28.8,93,67,45,30.60,29.96,3,0,9,0.08
2014-1-14,58.1,48.0,38.3,56.1,43.5,35.1,100,85,61,30.60,29.17,2,0,8,0.16
2014-1-15,61.2,42.7,30.0,50.3,34.0,28.7,100,74,44,29.70,29.56,5,0,15,0.00
2014-1-16,47.7,36.3,28.2,29.0,22.9,18.5,75,59,42,29.70,29.32,5,0,9,0.00
2014-1-17,55.0,40.7,28.2,33.2,24.0,16.8,63,52,38,29.70,29.65,5,0,10,0.00
2014-1-18,41.7,33.8,27.9,18.6,15.0,10.2,59,46,38,29.70,29.68,7,1,16,0.00
2014-1-19,57.0,41.9,30.2,30.5,22.3,15.1,57,46,35,29.70,29.65,5,0,10,0.00
2014-1-20,64.9,46.9,34.0,34.6,26.6,21.9,62,47,30,29.70,29.70,3,0,12,0.00
2014-1-21,59.7,42.7,30.0,35.2,24.2,11.2,62,48,37,29.70,29.68,7,1,20,0.00
2014-1-22,37.4,28.1,20.8,13.8,8.2,3.1,50,43,36,29.70,29.70,5,0,12,0.00
2014-1-23,43.5,29.7,20.1,18.4,9.5,1.7,54,43,35,29.70,29.70,6,0,12,0.00
2014-1-24,28.2,19.9,11.1,4.6,-1.8,-9.1,41,38,36,29.70,29.70,6,0,13,0.00
2014-1-25,42.1,29.7,15.8,17.0,7.4,-3.8,43,39,36,29.70,29.70,6,2,13,0.00
2014-1-26,54.3,38.7,22.8,27.8,19.6,10.6,64,47,33,29.70,29.70,3,0,15,0.00
2014-1-27,65.1,51.2,38.9,47.3,33.5,24.0,78,52,35,30.54,29.70,7,1,13,0.00
2014-1-28,41.5,28.2,20.7,35.2,12.5,3.2,87,55,31,31.20,30.04,9,2,15,0.00
2014-1-29,28.8,22.2,13.6,16.2,10.0,3.4,82,62,34,30.38,30.17,6,1,13,0.00
2014-1-30,37.8,22.0,8.0,14.2,8.7,3.7,87,60,32,30.44,30.25,5,0,11,0.01
2014-1-31,56.1,33.8,15.9,21.1,16.1,10.8,85,55,21,30.26,30.14,2,0,6,0.02
2014-2-1,57.4,40.8,23.5,40.6,27.7,17.8,84,63,26,30.25,30.12,3,0,7,0.00
2014-2-2,67.8,52.2,37.4,52.4,45.9,36.0,96,80,57,30.14,29.98,3,0,8,0.00
2014-2-3,71.6,58.4,46.1,62.2,52.9,39.6,96,82,60,30.21,29.85,8,2,17,0.14
2014-2-4,46.0,39.5,37.6,39.2,36.6,34.4,96,89,74,30.35,30.10,9,2,17,0.33
2014-2-5,57.7,44.8,37.6,50.7,40.4,30.4,97,86,54,30.11,29.83,7,1,13,0.08
2014-2-6,42.8,37.5,31.8,30.9,26.4,22.5,79,65,50,30.34,30.10,9,1,15,0.00
2014-2-7,52.6,39.8,27.8,32.7,30.1,26.0,95,70,45,30.35,30.23,6,0,8,0.01
2014-2-8,56.4,43.0,34.7,36.7,33.9,30.8,88,72,46,30.27,30.09,5,0,7,0.00
2014-2-9,61.0,46.8,33.4,42.7,37.6,31.1,95,73,47,30.16,29.95,5,0,14,0.00
2014-2-10,47.1,39.2,34.3,36.4,33.5,31.5,94,81,55,30.24,30.02,7,2,13,0.12
2014-2-11,34.4,32.1,28.2,32.6,29.2,22.7,94,89,66,30.37,30.21,5,1,13,0.00
2014-2-12,28.3,25.4,23.0,26.3,22.3,19.2,94,88,74,30.40,29.82,10,4,21,0.00
2014-2-13,42.0,33.5,25.9,38.7,30.8,24.2,95,90,76,29.82,29.55,7,1,13,0.25
2014-2-14,56.1,43.1,27.2,34.6,31.1,25.2,93,65,40,29.84,29.68,3,0,9,0.29
2014-2-15,48.5,41.1,28.4,39.5,28.7,15.9,96,65,29,30.06,29.56,8,1,21,0.18
2014-2-16,56.7,41.4,29.3,31.2,25.7,18.4,81,55,33,30.14,30.03,3,0,9,0.00
2014-2-17,49.4,40.4,33.1,30.8,28.0,24.6,79,62,46,30.35,30.14,8,2,14,0.00
2014-2-18,65.8,48.4,31.0,38.4,31.5,25.8,88,57,23,30.23,30.10,5,0,9,0.00
2014-2-19,75.9,61.5,46.7,60.9,54.0,37.8,97,79,46,30.07,29.90,7,1,13,0.91
2014-2-20,78.1,67.2,52.6,59.5,55.6,51.7,97,68,47,30.13,29.94,8,2,20,0.00
2014-2-21,65.8,60.1,41.9,61.2,51.1,22.9,95,74,32,30.01,29.79,7,1,19,0.60
2014-2-22,64.5,47.5,34.5,35.1,30.2,23.7,88,56,23,30.20,30.02,5,0,10,0.00
2014-2-23,69.3,53.3,38.7,46.0,37.9,30.5,82,59,31,30.11,29.89,3,0,12,0.00
2014-2-24,65.0,52.8,40.0,46.0,34.4,21.6,90,53,30,30.11,29.88,8,1,15,0.00
2014-2-25,62.5,47.5,34.9,35.1,28.1,22.5,70,48,31,30.10,29.90,5,1,12,0.00
2014-2-26,48.9,41.0,29.8,27.2,23.7,20.3,72,50,37,29.94,29.77,7,2,13,0.00
2014-2-27,56.2,41.2,28.0,24.5,17.0,8.5,70,40,18,29.98,29.79,6,1,12,0.00
2014-2-28,49.0,38.1,28.3,21.9,16.0,10.4,54,41,30,30.27,29.98,8,2,16,0.00
2014-3-1,56.6,41.1,32.9,36.5,28.4,19.7,87,62,45,30.36,30.21,3,0,7,0.01
2014-3-2,72.8,54.8,35.2,48.4,42.0,32.2,94,66,39,30.24,29.91,5,1,15,0.00
2014-3-3,61.8,44.4,26.0,52.3,38.9,20.5,95,82,60,30.24,29.78,13,4,25,0.39
2014-3-4,38.7,30.1,19.1,21.3,14.5,8.2,81,53,37,30.35,30.20,10,3,19,0.00
2014-3-5,50.5,38.7,31.6,29.2,23.2,17.3,77,54,41,30.26,30.12,5,1,9,0.00
2014-3-6,40.3,34.9,31.3,32.1,24.2,17.3,93,67,47,30.36,30.05,13,6,24,0.83
2014-3-7,41.1,36.4,32.8,39.1,34.7,31.8,97,94,90,30.05,29.93,13,4,26,1.83
2014-3-8,69.1,50.4,31.2,49.9,40.8,30.4,98,74,40,30.11,29.98,3,0,10,0.00
2014-3-9,71.7,55.4,40.4,43.7,40.1,36.0,86,60,28,30.08,29.99,8,0,13,0.00
2014-3-10,74.2,56.2,34.8,42.0,35.5,30.8,86,50,25,30.02,29.81,3,0,10,0.00
2014-3-11,79.2,62.1,41.4,49.1,41.6,36.9,90,52,22,29.82,29.67,3,0,10,0.00
2014-3-12,74.0,62.1,45.2,61.9,51.1,25.1,95,69,41,29.68,29.26,14,3,31,0.13
2014-3-13,50.0,41.3,32.5,26.6,14.6,6.0,51,35,17,30.24,29.68,10,3,20,0.00
2014-3-14,64.3,47.2,28.3,28.9,20.6,10.1,60,37,19,30.30,30.07,8,1,16,0.00
2014-3-15,72.8,57.8,43.2,38.5,34.5,27.5,63,43,26,30.08,29.97,6,1,13,0.00
2014-3-16,51.7,48.8,44.8,48.3,43.9,37.9,97,84,61,30.02,29.75,8,2,15,1.34
2014-3-17,43.1,34.2,31.6,41.7,32.9,30.2,96,95,94,29.98,29.78,12,5,20,0.40
2014-3-18,40.2,35.0,30.5,38.2,33.5,29.1,96,94,90,30.18,29.94,9,4,16,0.08
2014-3-19,51.0,42.5,37.7,46.1,40.5,36.9,97,93,81,30.19,30.00,5,1,10,0.01
2014-3-20,68.6,55.4,40.1,46.8,37.4,23.4,98,58,22,30.05,29.94,6,1,15,0.00
2014-3-21,69.8,53.4,33.1,34.9,29.7,23.6,82,44,22,30.17,30.03,7,1,13,0.00
2014-3-22,74.9,60.4,43.7,46.8,41.3,32.7,82,52,32,30.06,29.92,6,1,16,0.00
2014-3-23,58.4,47.6,35.3,44.1,41.2,34.3,96,80,47,30.14,29.90,15,2,28,0.07
2014-3-24,54.5,41.4,29.9,36.9,25.7,16.5,97,59,26,30.27,30.07,9,1,14,0.00
2014-3-25,47.1,40.2,35.3,41.0,32.1,23.3,91,74,40,30.07,29.79,15,2,30,0.07
2014-3-26,50.5,37.6,24.8,24.1,17.6,12.5,76,47,22,30.32,30.03,8,2,19,0.00
2014-3-27,62.5,44.6,26.3,42.4,25.4,19.0,79,51,24,30.45,30.25,7,1,15,0.00
2014-3-28,66.4,55.8,46.6,58.7,51.7,41.4,97,86,71,30.27,30.09,8,1,18,0.21
2014-3-29,68.7,60.3,55.1,63.4,58.6,50.7,98,94,81,30.11,29.60,7,1,15,0.27
2014-3-30,58.7,49.9,38.5,50.6,32.9,25.3,85,54,28,30.01,29.65,17,5,37,0.00
2014-3-31,75.2,53.8,34.7,35.2,29.2,21.4,81,46,17,30.15,30.01,9,1,15,0.00
2014-4-1,84.5,64.0,45.0,39.9,35.1,28.1,68,39,13,30.12,29.99,5,0,10,0.00
2014-4-2,86.6,70.6,53.4,45.8,39.5,33.8,59,35,19,30.08,29.98,7,1,16,0.00
2014-4-3,87.8,71.8,62.5,56.8,44.6,35.7,53,39,19,30.06,29.87,6,1,14,0.00
2014-4-4,80.7,70.8,60.7,60.9,54.2,46.4,70,56,45,29.89,29.71,8,2,19,0.00
2014-4-5,73.1,64.2,54.4,53.6,44.1,33.0,90,52,28,30.03,29.80,8,1,15,0.00
2014-4-6,59.4,54.8,47.6,41.2,36.1,31.4,62,49,40,30.17,30.02,9,3,20,0.00
2014-4-7,59.6,52.9,46.5,58.8,49.5,40.5,97,89,58,30.05,29.66,7,1,13,1.33
2014-4-8,68.1,60.9,54.8,60.9,51.1,39.4,97,73,45,29.69,29.58,7,1,14,0.00
2014-4-9,68.8,57.7,46.3,44.4,40.2,34.3,79,54,32,30.10,29.69,9,2,18,0.00
2014-4-10,76.5,57.7,37.6,45.2,38.2,35.2,92,55,24,30.26,30.10,5,1,12,0.00
2014-4-11,79.4,64.7,49.0,50.6,45.2,39.1,78,51,33,30.21,30.06,8,2,19,0.00
2014-4-12,82.2,65.9,48.1,53.6,49.5,46.3,95,60,33,30.20,30.07,7,1,14,0.00
2014-4-13,82.2,69.7,53.9,60.2,55.5,50.7,90,63,43,30.18,30.04,5,1,10,0.00
2014-4-14,77.8,68.7,60.3,64.8,60.6,54.3,93,77,53,30.07,29.79,5,1,14,0.00
2014-4-15,71.0,59.6,39.3,66.2,55.8,28.7,97,87,63,30.02,29.57,8,2,19,1.27
2014-4-16,56.0,42.9,32.0,35.9,28.6,23.0,88,60,35,30.43,30.02,12,2,18,0.00
2014-4-17,63.5,47.7,34.1,39.0,32.5,27.8,92,60,28,30.54,30.38,10,2,16,0.00
2014-4-18,59.3,50.1,43.7,47.8,42.5,35.0,95,76,55,30.41,30.15,9,2,16,0.55
2014-4-19,51.7,49.8,48.0,50.9,48.5,46.9,97,96,88,30.21,30.08,10,4,21,2.39
2014-4-20,69.6,58.0,48.7,49.0,41.4,34.8,96,59,29,30.25,30.16,14,4,29,0.05
2014-4-21,76.2,58.9,44.8,46.9,39.5,31.6,77,52,26,30.17,29.93,6,1,13,0.00
2014-4-22,83.4,64.0,50.3,61.6,52.9,43.1,96,71,35,29.92,29.70,5,0,18,0.01
2014-4-23,77.0,64.8,51.8,58.7,42.0,27.9,98,53,18,29.96,29.71,8,1,14,0.00
2014-4-24,75.3,59.2,43.9,50.6,41.0,31.8,85,53,33,30.12,29.96,7,1,13,0.00
2014-4-25,80.6,64.9,51.4,66.8,56.1,49.0,94,75,50,29.96,29.68,6,1,20,0.00
2014-4-26,82.9,66.8,48.3,53.8,47.4,43.9,91,54,26,30.02,29.85,6,0,12,0.00
2014-4-27,87.9,69.5,50.3,58.8,52.6,46.0,90,59,30,30.00,29.88,5,0,12,0.00
2014-4-28,85.9,73.1,62.7,68.8,63.1,57.3,93,73,50,29.92,29.80,7,1,16,0.00
2014-4-29,74.3,63.3,57.4,67.3,60.1,54.0,97,90,78,29.99,29.84,7,2,14,0.00
2014-4-30,80.2,70.1,61.2,70.8,64.4,59.4,98,83,66,29.98,29.85,6,1,15,0.06
2014-5-1,80.2,69.6,58.4,64.2,59.2,48.6,89,71,50,29.90,29.77,5,1,15,0.00
2014-5-2,71.5,59.1,48.3,52.2,48.1,43.2,95,70,38,29.95,29.84,5,0,9,0.00
2014-5-3,77.5,63.3,48.1,53.1,47.9,44.8,96,62,32,29.94,29.85,6,1,13,0.00
2014-5-4,86.1,69.1,49.5,55.8,51.2,46.5,90,57,32,30.01,29.84,3,0,13,0.00
2014-5-5,90.5,73.7,58.0,61.8,55.7,51.3,84,57,31,29.97,29.79,3,0,12,0.00
2014-5-6,89.3,72.8,53.6,61.9,56.6,51.3,93,60,33,29.93,29.81,3,0,9,0.00
2014-5-7,87.3,71.1,57.0,67.0,60.6,54.5,92,71,42,30.10,29.93,5,0,9,0.00
2014-5-8,90.5,73.6,56.5,64.3,59.2,53.7,94,65,36,30.18,30.07,5,0,14,0.00
2014-5-9,88.0,73.7,62.4,68.6,63.6,57.5,90,72,48,30.14,30.01,5,0,13,0.00
2014-5-10,84.3,69.3,62.9,70.1,64.7,59.0,97,86,53,30.10,30.00,9,0,16,0.46
2014-5-11,87.3,70.8,59.9,69.5,63.5,59.3,98,81,45,30.14,30.03,5,0,9,0.00
2014-5-12,90.7,74.4,59.7,71.0,64.4,58.8,98,74,40,30.17,30.07,3,0,9,0.00
2014-5-13,90.8,76.2,65.0,73.4,66.4,63.5,97,74,48,30.13,30.04,2,0,8,0.00
2014-5-14,87.6,76.3,66.0,70.0,64.9,60.2,95,70,41,30.14,29.99,6,0,16,0.00
2014-5-15,73.3,69.2,61.7,70.8,67.1,59.4,98,93,78,30.03,29.81,5,0,14,1.99
2014-5-16,72.9,61.7,50.9,59.5,51.4,43.4,98,72,41,30.08,29.85,5,1,13,0.00
2014-5-17,73.6,58.3,42.4,51.2,45.7,41.1,96,67,38,30.18,30.07,5,0,12,0.00
2014-5-18,68.2,58.4,50.4,55.2,49.8,46.9,96,74,51,30.23,30.15,5,0,10,0.00
2014-5-19,75.7,60.0,44.6,55.4,49.3,43.8,97,72,38,30.30,30.20,6,0,10,0.00
2014-5-20,80.7,64.7,49.6,62.8,56.1,47.8,96,76,51,30.28,30.09,3,0,10,0.00
2014-5-21,87.2,74.5,59.7,67.1,63.0,57.4,94,70,47,30.10,29.93,3,0,13,0.00
2014-5-22,91.3,78.4,68.9,69.4,63.8,58.7,84,62,40,29.99,29.86,6,0,15,0.00
2014-5-23,89.5,76.5,65.4,70.5,63.5,59.2,92,67,38,30.03,29.90,8,1,26,0.00
2014-5-24,83.0,70.4,55.9,59.2,52.8,47.9,81,56,31,30.11,29.98,6,1,13,0.00
2014-5-25,82.4,69.2,54.2,65.6,59.2,51.6,92,73,47,30.17,30.08,3,0,8,0.00
2014-5-26,87.4,73.2,57.5,70.3,64.5,56.4,97,76,53,30.19,30.05,3,0,10,0.00
2014-5-27,90.6,76.8,67.8,71.6,67.9,65.1,93,76,45,30.09,29.95,2,0,10,0.00
2014-5-28,90.8,77.8,67.1,72.0,66.9,64.4,97,72,43,30.01,29.92,3,0,9,0.00
2014-5-29,91.3,76.0,64.9,72.4,67.5,63.2,97,77,48,30.07,29.92,16,0,30,1.76
2014-5-30,84.8,74.4,66.1,72.8,69.4,65.5,98,85,63,30.08,30.00,3,0,12,0.01
2014-5-31,81.7,71.5,63.9,68.7,64.7,60.4,96,81,50,30.16,30.06,6,1,12,0.04
2014-6-1,79.5,68.6,58.3,62.1,58.7,55.3,97,73,45,30.30,30.16,7,1,13,0.00
2014-6-2,81.4,67.5,52.3,63.0,57.7,51.5,97,74,46,30.27,30.11,3,0,10,0.00
2014-6-3,88.0,72.3,55.8,69.5,62.5,55.0,97,74,46,30.13,29.93,2,0,9,0.00
2014-6-4,91.7,78.6,64.6,71.9,68.2,63.4,97,73,48,29.94,29.75,2,0,8,0.00
2014-6-5,93.1,81.3,72.6,74.4,69.9,67.1,89,70,44,29.82,29.72,5,0,9,0.00
2014-6-6,87.4,76.7,68.1,67.9,63.7,58.7,80,65,46,29.91,29.80,7,1,13,0.00
2014-6-7,86.4,75.4,68.6,70.5,66.3,61.2,94,75,45,29.99,29.89,7,1,12,0.00
2014-6-8,79.2,72.6,65.6,73.6,69.5,64.5,97,90,79,29.96,29.83,3,0,13,0.25
2014-6-9,89.9,77.1,69.1,74.8,71.0,67.6,96,83,54,29.90,29.81,3,0,10,0.11
2014-6-10,93.2,81.8,66.3,75.7,71.5,65.7,98,73,48,29.92,29.85,3,0,14,0.00
2014-6-11,89.9,77.1,67.6,73.3,68.8,64.2,97,78,53,29.94,29.79,5,0,12,0.97
2014-6-12,86.2,73.2,67.7,73.5,69.1,66.8,98,88,57,29.91,29.80,3,0,10,0.11
2014-6-13,88.5,75.0,65.3,72.4,68.1,64.5,98,81,53,29.86,29.78,3,0,13,0.23
2014-6-14,88.1,75.2,64.3,70.7,66.6,63.2,98,77,50,30.03,29.86,7,1,12,0.00
2014-6-15,90.6,76.0,61.8,71.5,64.8,60.9,98,72,41,30.15,30.02,5,0,9,0.00
2014-6-16,95.1,79.2,66.5,76.8,71.0,65.6,97,78,45,30.17,30.06,3,0,10,0.00
2014-6-17,94.8,81.4,69.0,76.2,71.2,67.5,97,74,44,30.15,30.04,3,0,8,0.00
2014-6-18,96.0,81.8,70.8,75.6,70.3,66.9,90,70,48,30.10,30.02,2,0,10,0.00
2014-6-19,95.6,81.4,70.7,75.5,70.0,65.7,90,70,48,30.09,29.97,3,0,10,0.00
2014-6-20,95.9,81.1,68.6,72.7,68.3,65.6,91,67,40,30.02,29.89,6,0,9,0.00
2014-6-21,93.3,78.6,69.6,76.4,70.6,67.0,96,78,48,29.92,29.77,6,0,16,0.32
2014-6-22,88.3,78.5,68.5,72.3,68.9,66.2,97,74,50,29.93,29.79,8,1,12,0.00
2014-6-23,88.2,77.7,69.9,72.5,69.3,67.4,93,77,54,30.08,29.93,6,1,13,0.00
2014-6-24,81.5,74.8,70.3,74.7,71.4,68.2,97,89,78,30.09,29.98,6,1,13,0.14
2014-6-25,90.0,77.8,68.9,75.9,71.8,68.3,98,83,57,30.00,29.89,5,0,10,0.07
2014-6-26,94.3,80.7,68.9,73.0,69.8,67.0,96,72,42,29.99,29.88,6,0,10,0.00
2014-6-27,88.4,76.6,70.2,76.3,70.9,68.3,97,83,62,30.09,29.93,6,1,13,1.58
2014-6-28,85.1,74.3,69.7,74.2,71.0,68.8,97,90,68,30.18,30.05,7,1,12,1.02
2014-6-29,84.6,74.6,68.0,71.4,67.0,62.0,98,79,52,30.22,30.09,6,0,10,0.00
2014-6-30,89.2,77.0,65.7,75.7,70.6,64.8,97,82,56,30.09,29.93,3,0,9,0.00
2014-7-1,92.8,80.5,69.5,78.3,73.7,68.6,98,81,59,29.96,29.86,3,0,9,0.00
2014-7-2,94.6,84.0,73.6,78.8,74.6,70.5,91,75,54,29.94,29.88,3,0,9,0.00
2014-7-3,91.1,79.9,71.3,77.8,72.9,68.0,95,80,59,29.97,29.80,8,1,18,0.07
2014-7-4,86.6,76.0,67.7,70.5,62.1,55.0,94,64,43,30.15,29.91,7,2,16,0.00
2014-7-5,85.6,73.2,63.4,64.5,57.0,52.6,88,59,39,30.26,30.14,9,2,14,0.00
2014-7-6,89.2,74.5,59.6,69.6,64.5,58.5,97,74,45,30.18,30.02,3,0,8,0.00
2014-7-7,91.5,79.3,68.2,74.8,70.7,65.0,98,77,54,30.05,29.91,2,0,10,0.00
2014-7-8,95.2,82.6,71.4,73.3,69.6,66.9,93,67,41,30.01,29.87,7,1,14,0.00
2014-7-9,93.8,78.1,70.8,74.6,70.0,67.0,96,77,48,29.99,29.91,5,0,14,0.06
2014-7-10,87.5,75.7,69.9,75.1,71.3,69.0,98,87,61,30.09,29.97,3,0,8,0.00
2014-7-11,88.2,76.5,70.0,73.4,70.5,68.8,97,83,57,30.17,30.05,5,1,9,0.00
2014-7-12,93.1,77.7,65.8,73.7,68.7,64.9,98,77,43,30.20,30.09,5,0,9,0.00
2014-7-13,95.3,81.5,68.4,75.3,69.8,64.9,97,71,42,30.12,29.98,7,0,9,0.00
2014-7-14,97.7,83.8,73.1,74.3,71.8,69.1,94,70,43,30.00,29.83,5,0,12,0.00
2014-7-15,95.9,79.7,69.0,75.5,71.4,66.3,98,78,45,29.86,29.70,8,1,31,4.64
2014-7-16,83.4,73.0,65.9,69.5,65.6,60.8,98,80,48,29.91,29.76,7,1,13,0.09
2014-7-17,85.6,73.1,59.5,67.5,61.3,55.9,93,68,48,30.06,29.91,7,1,13,0.00
2014-7-18,87.4,73.9,63.4,71.3,65.7,61.7,95,78,46,30.15,30.06,6,1,12,0.00
2014-7-19,77.4,69.6,65.7,66.9,64.0,56.8,96,83,50,30.14,30.07,6,1,10,0.08
2014-7-20,82.2,71.7,66.3,74.6,68.3,62.7,97,90,74,30.10,30.00,3,1,8,0.45
2014-7-21,74.6,73.0,70.3,74.0,72.1,69.1,98,97,94,30.13,30.01,6,1,13,1.12
2014-7-22,85.3,76.0,71.1,76.4,72.6,70.2,98,90,68,30.14,30.05,6,1,10,0.00
2014-7-23,92.5,81.0,69.3,78.3,73.8,68.7,98,80,59,30.08,29.90,2,0,9,0.00
2014-7-24,90.3,77.8,70.7,76.8,72.6,68.9,98,85,58,29.92,29.82,3,0,10,0.00
2014-7-25,87.8,75.0,67.8,73.4,69.5,65.9,96,84,61,30.04,29.92,5,1,9,0.00
2014-7-26,91.8,78.4,69.2,76.7,72.3,68.3,98,83,53,30.01,29.91,5,0,8,0.00
2014-7-27,91.8,78.7,69.7,78.4,73.2,68.4,97,84,61,29.95,29.80,5,0,13,0.06
2014-7-28,91.4,79.8,69.6,74.6,67.4,60.4,93,68,45,29.86,29.74,7,1,18,0.00
2014-7-29,84.5,73.4,62.2,66.0,61.2,58.1,92,67,45,29.96,29.85,6,1,10,0.00
2014-7-30,85.1,73.0,63.5,69.2,63.1,55.9,91,72,52,30.05,29.96,6,1,13,0.00
2014-7-31,83.0,73.0,64.8,72.0,67.7,63.6,97,85,57,30.11,30.03,7,1,10,0.47
2014-8-1,73.8,68.2,65.8,69.2,66.4,64.6,97,94,85,30.09,30.02,9,3,20,0.48
2014-8-2,72.2,67.4,64.9,68.1,65.4,63.5,98,93,85,30.11,30.04,6,1,10,0.01
2014-8-3,83.6,72.4,65.5,72.5,68.2,64.9,98,88,65,30.11,30.00,5,0,10,0.00
2014-8-4,86.0,75.3,67.5,72.4,69.4,66.6,98,83,58,30.08,29.99,7,1,10,0.00
2014-8-5,90.0,76.5,66.2,72.9,69.6,65.3,98,81,51,30.05,29.95,5,0,9,0.00
2014-8-6,90.9,79.0,68.7,75.5,69.7,64.3,98,76,43,29.99,29.90,3,0,7,0.04
2014-8-7,89.3,77.3,67.6,72.1,68.9,66.2,98,77,50,30.00,29.90,7,1,14,0.00
2014-8-8,83.2,74.3,68.5,73.8,70.4,67.1,97,88,71,30.09,29.99,6,1,9,0.00
2014-8-9,81.1,72.7,67.0,76.5,70.4,66.0,97,93,82,30.06,29.98,8,1,13,0.04
2014-8-10,71.9,69.0,66.2,70.3,67.8,65.6,98,96,93,30.07,30.00,6,1,9,0.01
2014-8-11,85.7,75.3,70.7,76.8,72.3,69.8,98,91,69,30.04,29.90,3,0,9,0.07
2014-8-12,90.4,78.5,72.2,78.8,74.1,70.4,98,87,65,29.92,29.73,3,0,14,0.03
2014-8-13,84.7,75.5,66.9,72.6,66.1,59.1,98,75,43,29.97,29.80,6,1,12,0.00
2014-8-14,85.6,72.0,60.2,64.2,60.6,57.3,90,69,42,30.05,29.94,7,1,14,0.00
2014-8-15,88.1,74.1,60.7,70.1,65.0,59.7,97,76,49,30.02,29.92,1,0,7,0.00
2014-8-16,88.9,76.6,66.8,75.9,70.2,65.1,97,82,53,30.01,29.94,5,0,8,0.00
2014-8-17,91.6,79.7,68.1,74.9,70.2,67.3,98,76,47,29.99,29.91,3,0,10,0.00
2014-8-18,92.1,78.5,69.7,75.9,70.5,66.2,96,78,48,29.93,29.74,3,0,13,0.00
2014-8-19,90.8,77.0,71.1,77.7,71.7,67.9,98,85,55,29.86,29.76,5,0,12,0.68
2014-8-20,93.0,79.0,67.6,78.3,72.4,67.0,98,82,53,30.00,29.86,3,0,8,0.00
2014-8-21,93.9,80.9,69.3,75.0,70.6,67.6,97,74,43,30.07,29.95,5,1,10,0.00
2014-8-22,95.7,82.7,71.4,77.1,73.2,70.1,96,75,46,30.02,29.91,7,0,10,0.00
2014-8-23,90.8,79.7,71.8,76.0,73.4,70.9,98,83,58,29.96,29.84,6,1,13,0.05
2014-8-24,78.8,74.9,68.3,73.6,69.2,64.6,93,83,69,30.07,29.90,9,2,14,0.00
2014-8-25,82.7,71.4,61.8,64.4,61.1,58.9,93,72,46,30.10,30.03,10,2,20,0.00
2014-8-26,84.0,71.5,62.2,64.9,61.1,58.4,93,72,43,30.13,30.04,8,2,20,0.00
2014-8-27,88.0,73.2,60.9,65.7,60.2,54.5,94,68,34,30.08,29.96,7,1,13,0.00
2014-8-28,94.8,77.6,62.0,71.3,65.0,58.9,90,69,40,30.00,29.92,6,0,9,0.00
2014-8-29,86.3,77.4,69.0,74.0,70.5,63.9,92,80,65,30.11,29.99,8,2,13,0.00
2014-8-30,90.1,77.6,67.9,74.7,70.6,67.0,98,81,56,30.18,30.05,5,0,13,0.00
2014-8-31,91.7,78.1,71.8,76.4,72.4,68.9,96,83,58,30.15,30.02,2,0,9,0.00
2014-9-1,96.6,82.5,71.2,75.2,70.6,64.9,96,71,38,30.08,29.99,3,0,14,0.00
2014-9-2,98.7,82.0,69.7,74.5,70.7,67.9,96,72,41,30.04,29.90,3,0,12,0.00
2014-9-3,92.7,78.7,69.8,73.4,70.5,68.6,97,79,48,30.08,29.95,7,1,12,0.41
2014-9-4,88.0,77.2,69.7,77.3,73.0,69.1,98,88,64,30.15,30.05,7,0,12,0.03
2014-9-5,91.3,79.4,69.2,76.0,72.0,68.3,98,80,53,30.17,30.03,3,0,8,0.00
2014-9-6,91.3,78.6,67.5,74.2,70.9,66.6,98,79,52,30.06,29.90,5,0,8,0.00
2014-9-7,87.8,76.2,69.3,73.4,71.0,68.1,97,85,61,30.05,29.93,9,2,18,0.01
2014-9-8,72.0,69.5,67.9,70.2,67.1,65.4,97,92,86,30.07,30.01,8,3,14,0.02
2014-9-9,77.0,70.4,65.2,69.8,66.7,63.4,96,89,76,30.12,30.04,7,1,12,0.01
2014-9-10,80.1,70.6,63.0,70.5,67.0,62.4,98,89,69,30.12,30.01,2,0,6,0.00
2014-9-11,91.7,76.5,65.4,75.2,70.6,64.8,98,84,55,30.03,29.91,5,0,14,0.11
2014-9-12,91.5,78.1,71.4,75.8,72.7,70.6,98,85,57,30.04,29.93,6,1,10,0.15
2014-9-13,85.6,76.3,70.2,76.6,72.8,66.2,98,90,69,30.13,29.99,6,1,10,0.43
2014-9-14,70.0,67.0,64.7,66.3,60.5,55.8,93,80,70,30.24,30.13,8,2,16,0.00
2014-9-15,75.6,68.9,64.1,69.0,65.7,62.9,97,90,75,30.22,30.09,3,0,7,0.06
2014-9-16,86.3,74.1,65.8,71.9,68.6,64.2,98,85,57,30.09,29.89,8,1,20,1.00
2014-9-17,74.2,67.4,62.5,68.7,65.4,61.9,98,94,82,29.96,29.88,5,1,9,0.00
2014-9-18,82.0,70.2,63.4,69.7,65.8,62.3,98,87,60,30.01,29.90,6,0,9,0.58
2014-9-19,78.2,69.7,64.6,66.0,63.6,58.6,98,83,55,30.19,30.01,8,1,14,0.39
2014-9-20,82.0,69.6,59.6,65.5,61.4,57.5,94,77,46,30.19,29.98,8,2,13,0.00
2014-9-21,86.5,72.3,57.9,68.7,63.7,56.7,97,76,51,29.98,29.80,5,0,12,0.00
2014-9-22,73.7,68.7,60.5,67.7,59.6,54.0,92,74,54,30.12,29.86,7,1,12,0.00
2014-9-23,64.4,59.1,53.6,58.9,53.4,50.2,90,82,72,30.29,30.12,8,2,13,0.05
2014-9-24,61.0,57.2,52.7,60.2,55.4,50.3,97,94,86,30.33,30.22,7,2,16,0.59
2014-9-25,70.2,64.7,61.0,65.1,62.4,60.2,97,92,82,30.24,30.15,7,2,12,0.05
2014-9-26,69.7,66.1,62.9,65.3,63.2,61.0,96,90,83,30.20,30.14,7,2,14,0.00
2014-9-27,75.8,66.4,59.7,63.2,60.7,58.6,98,83,58,30.21,30.12,8,2,21,0.00
2014-9-28,75.0,66.8,60.8,65.4,61.5,58.3,95,84,64,30.17,30.06,5,1,9,0.00
2014-9-29,68.5,65.5,63.2,65.8,63.7,62.0,97,94,85,30.05,29.94,3,0,7,0.12
2014-9-30,81.1,67.8,58.3,67.7,63.1,57.7,99,87,58,29.95,29.83,5,0,9,0.01
2014-10-1,84.1,67.9,57.4,70.1,63.0,56.8,99,86,48,30.02,29.89,5,0,9,0.00
2014-10-2,85.3,69.0,59.9,69.8,63.8,59.3,98,85,53,30.09,29.99,3,0,8,0.00
2014-10-3,80.3,69.5,61.6,71.9,66.9,60.7,98,92,67,30.03,29.75,3,0,13,0.06
2014-10-4,69.6,61.2,43.5,68.7,49.7,35.1,98,70,34,29.92,29.71,8,1,17,0.01
2014-10-5,65.4,50.2,37.1,44.7,40.4,36.1,98,74,39,30.04,29.90,3,0,14,0.00
2014-10-6,75.2,58.0,44.2,54.0,48.1,42.1,94,72,45,30.08,29.99,6,0,13,0.00
2014-10-7,77.8,64.3,51.7,62.1,56.4,50.3,97,77,54,30.13,29.97,5,0,14,0.00
2014-10-8,84.4,70.1,60.6,67.7,60.8,54.8,93,74,42,30.04,29.94,5,0,12,0.00
2014-10-9,79.9,65.5,52.0,60.3,56.1,50.6,96,74,45,30.16,30.04,5,0,9,0.00
2014-10-10,84.0,70.7,60.1,70.4,64.6,57.4,96,82,62,30.09,29.96,5,0,14,0.00
2014-10-11,86.2,73.0,67.0,75.1,68.8,66.1,98,88,60,30.03,29.90,5,1,12,0.19
2014-10-12,68.1,59.9,57.4,67.2,58.9,56.6,98,97,95,30.22,30.02,8,2,17,0.22
2014-10-13,75.1,65.7,59.9,71.4,64.6,59.3,99,97,87,30.23,30.09,3,0,7,0.03
2014-10-14,82.0,73.4,69.7,72.4,69.9,68.0,98,90,64,30.09,29.79,5,1,13,0.09
2014-10-15,72.7,63.5,57.3,69.9,57.9,52.8,98,83,56,29.85,29.77,3,0,12,0.60
2014-10-16,70.7,60.0,52.5,57.0,53.8,51.1,97,81,56,29.88,29.77,2,0,8,0.00
2014-10-17,73.4,59.0,47.0,58.7,53.0,46.2,98,82,55,29.94,29.81,3,0,10,0.00
2014-10-18,75.3,63.2,54.2,59.9,53.3,45.8,97,73,46,29.94,29.76,6,1,13,0.00
2014-10-19,67.5,54.9,44.4,49.7,45.2,41.7,95,72,44,30.12,29.94,7,1,13,0.00
2014-10-20,70.3,54.1,40.6,53.5,48.0,39.8,98,82,51,30.15,29.97,2,0,10,0.00
2014-10-21,74.1,60.2,47.3,56.1,50.3,41.7,98,73,46,29.98,29.83,5,1,13,0.00
2014-10-22,65.6,55.4,46.9,45.7,41.8,39.8,79,61,46,30.09,29.94,9,2,23,0.00
2014-10-23,66.6,52.4,41.6,47.6,43.0,39.4,92,73,44,30.08,29.97,6,1,14,0.00
2014-10-24,70.4,54.2,42.2,51.1,45.5,40.7,95,75,43,30.08,29.97,6,0,9,0.00
2014-10-25,72.7,53.8,38.3,48.2,42.8,37.5,98,72,29,30.04,29.91,5,0,10,0.00
2014-10-26,80.3,62.6,50.3,56.9,49.9,46.1,94,67,32,29.97,29.86,7,0,14,0.00
2014-10-27,80.0,59.1,43.7,53.2,47.0,41.5,94,70,31,30.11,29.97,5,0,8,0.00
2014-10-28,83.4,63.9,49.4,64.1,56.5,48.5,98,80,45,30.13,30.02,6,0,14,0.00
2014-10-29,78.9,64.7,56.0,62.3,57.4,47.5,96,79,54,30.02,29.89,8,1,16,0.00
2014-10-30,66.8,55.9,42.7,47.8,42.9,38.3,91,65,36,30.05,29.94,7,1,13,0.00
2014-10-31,63.3,50.1,40.6,48.8,43.8,38.5,95,80,57,29.96,29.75,7,1,18,0.42
2014-11-1,50.1,45.2,39.8,46.5,40.4,34.8,96,84,64,30.05,29.67,12,4,23,0.71
2014-11-2,53.4,42.1,29.4,34.6,27.9,22.4,94,60,30,30.36,30.05,13,2,24,0.00
2014-11-3,63.0,43.3,26.8,35.6,30.1,25.1,96,66,26,30.46,30.35,2,0,8,0.00
2014-11-4,66.5,52.4,39.3,43.1,38.0,32.9,84,60,35,30.36,30.24,5,0,14,0.00
2014-11-5,70.5,58.3,51.0,55.4,49.6,39.5,95,74,55,30.29,30.13,3,0,10,0.00
2014-11-6,69.7,61.8,51.0,61.9,55.0,31.6,94,80,41,30.13,29.74,16,2,23,0.00
2014-11-7,59.4,48.2,37.0,39.6,36.2,32.4,89,65,43,30.06,29.89,12,2,26,0.00
2014-11-8,58.6,44.8,31.4,43.4,37.5,29.9,96,77,52,30.09,29.96,7,0,9,0.00
2014-11-9,61.2,47.6,38.8,45.2,40.7,37.4,96,80,46,30.03,29.93,8,1,12,0.00
2014-11-10,65.3,47.2,33.5,45.8,40.2,32.7,98,80,44,30.13,30.03,9,1,15,0.00
2014-11-11,72.3,56.3,42.3,56.0,49.1,40.4,96,78,56,30.05,29.90,8,1,14,0.00
2014-11-12,76.3,60.2,44.1,57.6,51.8,43.3,98,76,50,30.00,29.91,9,0,10,0.00
2014-11-13,60.9,54.1,47.6,52.2,43.3,38.0,74,67,60,30.03,29.92,10,3,16,0.00
2014-11-14,47.5,37.9,28.9,38.1,25.3,15.2,88,62,39,30.35,30.01,14,5,24,0.00
2014-11-15,43.0,31.8,23.9,22.1,17.9,14.6,81,58,36,30.48,30.35,8,1,16,0.00
2014-11-16,50.9,41.5,26.6,38.6,30.6,21.2,82,67,44,30.39,30.05,7,1,12,0.00
2014-11-17,61.3,49.1,36.7,60.7,46.4,30.8,98,91,72,30.04,29.62,8,1,18,0.80
2014-11-18,38.1,30.5,20.2,30.4,18.3,12.6,83,62,35,30.34,29.93,7,1,21,0.00
2014-11-19,43.5,25.3,17.0,19.1,15.4,12.9,92,71,31,30.44,30.31,3,0,10,0.00
2014-11-23,63.6,56.5,48.2,63.0,55.7,47.1,98,97,96,30.09,29.73,9,3,18,1.01
2014-11-24,74.5,65.3,59.2,63.1,60.3,57.2,97,85,58,29.90,29.71,8,2,18,0.00
2014-11-25,64.7,58.4,48.4,62.6,51.6,42.1,97,80,52,30.06,29.87,7,1,12,0.24
2014-11-26,50.1,44.3,36.2,46.6,42.1,35.3,97,92,76,30.04,29.90,15,3,23,1.02
2014-11-27,50.6,41.2,32.5,40.2,33.1,26.1,98,75,49,30.30,29.97,12,2,20,0.00
2014-11-28,45.2,34.7,26.8,26.0,23.5,21.0,85,65,39,30.41,30.30,14,1,18,0.00
2014-11-29,56.5,40.5,27.7,33.3,29.5,24.0,89,68,37,30.35,30.23,7,1,15,0.00
2014-11-30,67.4,51.0,36.8,52.1,42.1,32.3,91,73,56,30.33,30.22,8,1,16,0.00
2014-12-1,72.6,55.2,41.6,55.5,48.3,39.7,95,80,53,30.37,30.25,6,1,10,0.00
2014-12-2,51.2,47.5,43.2,49.3,46.1,42.4,97,95,88,30.40,30.28,10,3,16,0.00
2014-12-3,62.5,50.4,42.5,57.6,49.0,41.7,98,95,84,30.33,30.17,5,0,10,0.01
2014-12-4,61.7,52.2,46.3,50.2,47.0,42.1,98,84,58,30.39,30.25,12,3,15,0.00
2014-12-5,50.4,46.4,40.6,44.3,41.0,38.9,95,81,72,30.47,30.34,7,2,10,0.01
2014-12-6,52.9,47.7,40.6,52.3,46.4,39.3,98,95,88,30.34,30.05,6,0,20,0.19
2014-12-7,53.7,47.7,38.8,46.2,33.8,22.9,87,61,34,30.42,30.14,28,8,33,0.00
2014-12-8,41.7,38.8,37.0,35.1,26.4,22.5,87,61,54,30.42,30.31,14,7,21,0.01
2014-12-9,53.5,44.6,37.1,42.2,37.4,33.0,96,77,59,30.16,29.94,10,2,16,0.00
2014-12-10,51.5,40.8,27.5,34.3,30.2,24.4,89,68,43,30.07,29.98,12,2,24,0.00
2014-12-11,49.7,34.8,23.6,29.8,24.4,19.8,95,69,35,30.18,30.03,3,0,10,0.00
2014-12-12,58.2,42.7,26.4,26.8,23.6,19.8,79,50,23,30.19,30.15,4,0,4,0.00
2014-12-13,63.5,44.0,27.4,29.7,24.7,19.1,84,52,18,30.18,30.04,5,0,5,0.00
2014-12-14,61.4,43.9,29.0,35.4,29.7,23.0,83,60,35,30.08,30.00,5,0,5,0.00
2014-12-15,59.9,43.3,29.4,40.0,34.6,27.4,94,73,44,30.14,30.04,6,1,6,0.00
2014-12-16,57.7,46.4,34.8,54.7,44.4,33.0,97,93,87,30.06,29.86,6,1,6,0.13
2014-12-17,59.0,45.5,34.4,42.7,38.7,33.3,98,79,50,30.15,30.02,6,1,6,0.00
2014-12-18,54.3,43.4,34.2,35.4,32.2,28.9,95,66,40,30.20,30.07,7,1,7,0.00
2014-12-19,56.1,43.2,32.0,36.5,31.6,27.1,86,66,39,30.20,30.08,7,1,7,0.00
2014-12-20,43.5,41.5,39.2,37.6,35.4,31.5,89,79,63,30.27,30.18,7,2,7,0.03
2014-12-21,49.2,43.9,39.1,40.4,38.2,36.1,90,80,69,30.30,30.17,7,2,7,0.00
2014-12-22,45.1,38.9,37.1,40.4,37.6,36.1,97,95,79,30.18,30.02,13,5,13,0.25
2014-12-23,44.4,40.5,37.1,43.9,39.8,36.3,98,97,97,30.08,29.90,8,2,8,0.22
2014-12-24,63.4,53.4,44.5,63.1,52.7,44.0,99,98,86,29.91,29.64,9,2,9,1.26
2014-12-25,57.0,48.1,32.6,52.9,40.2,31.0,94,76,46,30.26,29.69,8,2,8,0.00
2014-12-26,58.8,40.9,28.6,39.8,33.7,27.9,98,79,42,30.38,30.24,4,0,4,0.00
2014-12-27,63.9,46.6,31.6,44.6,37.3,30.3,97,74,37,30.34,30.18,5,0,5,0.00
2014-12-28,60.9,55.5,49.8,57.3,52.2,42.2,97,89,70,30.18,29.98,6,1,6,0.02
2014-12-29,56.4,53.5,43.7,55.4,52.3,42.9,98,96,92,30.14,29.99,12,2,12,0.95
2014-12-30,43.7,38.5,29.6,42.9,36.6,28.6,97,93,83,30.45,30.13,12,4,12,0.04
2014-12-31,45.4,34.6,27.1,33.8,29.9,26.3,98,84,60,30.49,30.37,7,1,7,0.00
2015-1-1,53.3,39.5,25.3,38.9,32.4,24.5,98,78,47,30.37,30.23,7,1,7,0.00
2015-1-2,52.0,47.7,42.2,46.1,41.2,34.4,96,79,59,30.36,30.23,5,0,5,0.10